createdAt,value
2023-05-05T00:00:38.022Z,5.57
2023-05-05T00:02:40.813Z,5.55
2023-05-05T00:04:43.377Z,4.60
2023-05-05T00:06:45.784Z,4.78
2023-05-05T00:08:47.974Z,4.95
2023-05-05T00:10:51.799Z,4.90
2023-05-05T00:12:54.247Z,4.82
2023-05-05T00:14:56.531Z,5.57
2023-05-05T00:16:59.486Z,5.18
2023-05-05T00:19:01.968Z,4.55
2023-05-05T00:21:05.091Z,5.13
2023-05-05T00:23:07.736Z,3.97
2023-05-05T00:25:10.373Z,5.55
2023-05-05T00:27:12.648Z,5.32
2023-05-05T00:29:14.872Z,8.20
2023-05-05T00:31:17.380Z,8.32
2023-05-05T00:33:20.344Z,8.65
2023-05-05T00:35:22.813Z,6.78
2023-05-05T00:37:25.935Z,8.35
2023-05-05T00:39:28.285Z,7.00
2023-05-05T00:41:30.910Z,6.88
2023-05-05T00:43:33.811Z,6.95
2023-05-05T00:45:38.215Z,6.47
2023-05-05T00:47:43.939Z,7.75
2023-05-05T00:49:46.429Z,8.18
2023-05-05T00:51:49.169Z,5.60
2023-05-05T00:53:51.736Z,6.30
2023-05-05T00:55:53.956Z,5.45
2023-05-05T00:57:58.749Z,5.38
2023-05-05T01:00:03.107Z,5.15
2023-05-05T01:02:05.644Z,6.20
2023-05-05T01:04:08.291Z,5.40
2023-05-05T01:06:37.507Z,5.75
2023-05-05T01:09:15.201Z,6.07
2023-05-05T01:11:26.724Z,6.35
2023-05-05T01:13:48.127Z,6.53
2023-05-05T01:15:59.179Z,9.25
2023-05-05T01:18:30.990Z,8.07
2023-05-05T01:20:59.530Z,8.07
2023-05-05T01:23:07.352Z,6.10
2023-05-05T01:25:34.345Z,4.75
2023-05-05T01:27:50.380Z,5.63
2023-05-05T01:30:24.887Z,6.50
2023-05-05T01:32:30.396Z,6.55
2023-05-05T01:34:37.534Z,7.45
2023-05-05T01:38:46.809Z,7.53
2023-05-05T01:40:55.018Z,7.68
2023-05-05T01:43:01.080Z,7.53
2023-05-05T01:45:06.873Z,8.13
2023-05-05T01:47:13.466Z,7.13
2023-05-05T01:49:17.211Z,6.03
2023-05-05T01:51:22.131Z,5.97
2023-05-05T01:53:25.878Z,6.13
2023-05-05T01:55:29.793Z,5.50
2023-05-05T01:57:33.633Z,6.40
2023-05-05T01:59:37.318Z,6.75
2023-05-05T02:01:46.275Z,6.85
2023-05-05T02:03:51.764Z,7.60
2023-05-05T02:05:55.087Z,8.85
2023-05-05T02:08:00.312Z,8.90
2023-05-05T02:10:05.601Z,9.13
2023-05-05T02:12:09.290Z,7.82
2023-05-05T02:14:12.762Z,9.15
2023-05-05T02:16:18.247Z,7.43
2023-05-05T02:18:23.248Z,7.60
2023-05-05T02:20:27.819Z,7.75
2023-05-05T02:22:31.727Z,9.85
2023-05-05T02:24:34.409Z,8.65
2023-05-05T02:26:40.239Z,9.93
2023-05-05T02:28:51.981Z,8.02
2023-05-05T02:30:59.772Z,9.48
2023-05-05T02:33:09.648Z,9.95
2023-05-05T02:35:19.410Z,8.82
2023-05-05T02:37:27.725Z,8.68
2023-05-05T02:39:37.390Z,8.13
2023-05-05T02:41:49.095Z,9.88
2023-05-05T02:44:03.951Z,10.20
2023-05-05T02:46:08.385Z,9.70
2023-05-05T02:48:13.484Z,10.40
2023-05-05T02:50:16.011Z,10.50
2023-05-05T02:52:27.229Z,9.10
2023-05-05T02:54:31.991Z,7.40
2023-05-05T02:56:51.926Z,9.25
2023-05-05T02:59:16.546Z,10.85
2023-05-05T03:01:52.848Z,9.52
2023-05-05T03:04:14.852Z,11.40
2023-05-05T03:06:27.512Z,11.15
2023-05-05T03:08:55.126Z,10.75
2023-05-05T03:11:15.089Z,8.32
2023-05-05T03:13:20.897Z,9.43
2023-05-05T03:15:28.492Z,10.35
2023-05-05T03:17:33.191Z,9.18
2023-05-05T03:19:38.311Z,8.07
2023-05-05T03:21:41.270Z,7.95
2023-05-05T03:23:43.671Z,6.32
2023-05-05T03:25:53.524Z,7.32
2023-05-05T03:28:09.290Z,7.20
2023-05-05T03:30:12.853Z,7.65
2023-05-05T03:32:24.050Z,7.05
2023-05-05T03:34:29.584Z,7.75
2023-05-05T03:36:33.491Z,10.80
2023-05-05T03:38:36.289Z,11.05
2023-05-05T03:40:44.049Z,9.80
2023-05-05T03:42:51.286Z,8.30
2023-05-05T03:44:54.311Z,7.90
2023-05-05T03:46:58.434Z,7.97
2023-05-05T03:49:01.527Z,7.65
2023-05-05T03:51:04.480Z,7.25
2023-05-05T03:53:09.160Z,8.38
2023-05-05T03:55:12.113Z,9.85
2023-05-05T03:57:14.702Z,12.02
2023-05-05T03:59:17.809Z,11.85
2023-05-05T04:01:20.879Z,13.30
2023-05-05T04:03:23.556Z,12.70
2023-05-05T04:05:26.551Z,13.50
2023-05-05T04:07:29.987Z,12.10
2023-05-05T04:09:32.427Z,11.73
2023-05-05T04:11:34.844Z,14.43
2023-05-05T04:13:38.062Z,12.60
2023-05-05T04:15:47.561Z,14.20
2023-05-05T04:17:51.752Z,12.50
2023-05-05T04:19:55.909Z,13.57
2023-05-05T04:21:58.448Z,13.65
2023-05-05T04:24:01.275Z,13.65
2023-05-05T04:26:03.912Z,13.63
2023-05-05T04:28:06.511Z,13.52
2023-05-05T04:30:10.103Z,14.07
2023-05-05T04:32:15.424Z,14.13
2023-05-05T04:34:19.279Z,15.05
2023-05-05T04:36:22.134Z,14.10
2023-05-05T04:38:25.089Z,13.68
2023-05-05T04:40:27.986Z,13.38
2023-05-05T04:42:32.900Z,13.88
2023-05-05T04:44:36.060Z,12.63
2023-05-05T04:46:39.202Z,10.65
2023-05-05T04:48:41.476Z,13.57
2023-05-05T04:50:43.717Z,11.25
2023-05-05T04:52:46.381Z,14.85
2023-05-05T04:54:49.031Z,15.45
2023-05-05T04:56:52.594Z,14.27
2023-05-05T04:58:55.469Z,16.92
2023-05-05T05:00:59.033Z,15.35
2023-05-05T05:03:01.972Z,16.42
2023-05-05T05:05:04.980Z,14.65
2023-05-05T05:07:07.762Z,15.15
2023-05-05T05:09:10.258Z,13.27
2023-05-05T05:11:13.485Z,13.32
2023-05-05T05:13:16.213Z,15.73
2023-05-05T05:15:19.028Z,14.18
2023-05-05T05:17:23.334Z,13.27
2023-05-05T05:19:25.653Z,14.07
2023-05-05T05:21:28.803Z,15.95
2023-05-05T05:23:31.712Z,13.77
2023-05-05T05:25:34.317Z,13.90
2023-05-05T05:27:36.885Z,13.93
2023-05-05T05:29:39.780Z,13.85
2023-05-05T05:31:44.618Z,14.15
2023-05-05T05:33:49.851Z,13.52
2023-05-05T05:35:55.304Z,14.48
2023-05-05T05:37:57.567Z,14.93
2023-05-05T05:40:00.710Z,14.50
2023-05-05T05:42:05.415Z,15.48
2023-05-05T05:44:08.196Z,14.82
2023-05-05T05:46:11.199Z,13.55
2023-05-05T05:48:15.001Z,13.40
2023-05-05T05:50:17.750Z,14.45
2023-05-05T05:52:20.842Z,13.98
2023-05-05T05:54:24.013Z,13.10
2023-05-05T05:56:29.200Z,12.10
2023-05-05T05:58:34.338Z,11.65
2023-05-05T06:00:36.727Z,12.75
2023-05-05T06:02:43.874Z,12.00
2023-05-05T06:04:50.385Z,11.27
2023-05-05T06:06:53.476Z,11.27
2023-05-05T06:08:55.808Z,10.30
2023-05-05T06:10:58.377Z,11.65
2023-05-05T06:13:00.967Z,11.35
2023-05-05T06:15:04.411Z,11.10
2023-05-05T06:17:06.676Z,10.13
2023-05-05T06:19:10.921Z,10.10
2023-05-05T06:21:14.305Z,11.68
2023-05-05T06:23:16.667Z,10.52
2023-05-05T06:25:24.442Z,10.70
2023-05-05T06:27:28.049Z,11.90
2023-05-05T06:29:30.662Z,10.63
2023-05-05T06:31:33.057Z,10.13
2023-05-05T06:33:35.987Z,11.13
2023-05-05T06:35:38.383Z,9.23
2023-05-05T06:37:40.756Z,10.00
2023-05-05T06:39:43.444Z,10.73
2023-05-05T06:41:45.754Z,11.00
2023-05-05T06:43:48.536Z,10.85
2023-05-05T06:45:51.076Z,11.90
2023-05-05T06:47:53.432Z,10.70
2023-05-05T06:49:55.761Z,9.75
2023-05-05T06:51:58.180Z,10.80
2023-05-05T06:54:00.572Z,11.25
2023-05-05T06:56:03.572Z,11.68
2023-05-05T06:58:06.146Z,12.07
2023-05-05T07:00:11.792Z,10.32
2023-05-05T07:02:14.450Z,11.70
2023-05-05T07:04:16.887Z,11.30
2023-05-05T07:06:20.054Z,11.00
2023-05-05T07:08:22.582Z,11.88
2023-05-05T07:10:26.812Z,10.98
2023-05-05T07:12:33.865Z,11.02
2023-05-05T07:14:36.795Z,12.57
2023-05-05T07:16:39.459Z,10.73
2023-05-05T07:18:41.874Z,10.50
2023-05-05T07:20:45.005Z,10.82
2023-05-05T07:22:47.673Z,10.95
2023-05-05T07:24:51.677Z,10.35
2023-05-05T07:26:54.118Z,11.40
2023-05-05T07:28:58.279Z,10.57
2023-05-05T07:31:00.703Z,10.13
2023-05-05T07:33:04.322Z,9.65
2023-05-05T07:35:07.488Z,10.05
2023-05-05T07:37:09.817Z,9.52
2023-05-05T07:39:15.442Z,8.95
2023-05-05T07:41:18.909Z,10.77
2023-05-05T07:43:21.716Z,11.13
2023-05-05T07:45:24.715Z,10.10
2023-05-05T07:47:27.227Z,9.70
2023-05-05T07:49:30.050Z,10.13
2023-05-05T07:51:34.497Z,9.45
2023-05-05T07:53:37.717Z,8.70
2023-05-05T07:55:40.219Z,9.20
2023-05-05T07:57:43.288Z,9.27
2023-05-05T07:59:45.991Z,9.60
2023-05-05T08:01:48.317Z,8.65
2023-05-05T08:03:50.851Z,8.68
2023-05-05T08:05:55.147Z,8.70
2023-05-05T08:07:57.559Z,8.77
2023-05-05T08:10:00.208Z,7.68
2023-05-05T08:12:03.106Z,8.05
2023-05-05T08:14:05.672Z,9.23
2023-05-05T08:16:08.462Z,9.43
2023-05-05T08:18:11.490Z,10.10
2023-05-05T08:20:14.717Z,9.07
2023-05-05T08:22:17.211Z,10.30
2023-05-05T08:24:19.728Z,10.05
2023-05-05T08:26:23.360Z,10.43
2023-05-05T08:28:25.647Z,10.02
2023-05-05T08:30:28.228Z,10.02
2023-05-05T08:32:30.693Z,9.88
2023-05-05T08:34:33.164Z,9.05
2023-05-05T08:36:36.061Z,10.45
2023-05-05T08:38:38.531Z,8.95
2023-05-05T08:40:41.811Z,10.93
2023-05-05T08:42:47.411Z,9.48
2023-05-05T08:44:50.413Z,9.07
2023-05-05T08:46:53.871Z,12.07
2023-05-05T08:48:57.300Z,15.77
2023-05-05T08:51:02.618Z,9.45
2023-05-05T08:53:17.424Z,7.90
2023-05-05T08:55:27.729Z,11.77
2023-05-05T08:58:03.501Z,8.27
2023-05-05T09:00:11.148Z,6.65
2023-05-05T09:02:15.346Z,5.80
2023-05-05T09:04:19.588Z,5.88
2023-05-05T09:06:23.926Z,4.22
2023-05-05T09:08:27.899Z,5.03
2023-05-05T09:10:31.256Z,4.68
2023-05-05T09:12:33.609Z,3.80
2023-05-05T09:14:36.556Z,3.40
2023-05-05T09:16:44.762Z,3.20
2023-05-05T09:18:47.582Z,3.25
2023-05-05T09:20:50.273Z,3.20
2023-05-05T09:22:53.647Z,2.90
2023-05-05T09:24:57.091Z,3.25
2023-05-05T09:27:01.403Z,2.80
2023-05-05T09:29:05.094Z,3.05
2023-05-05T09:31:16.165Z,2.90
2023-05-05T09:33:31.434Z,2.60
2023-05-05T09:35:53.927Z,2.90
2023-05-05T09:37:57.521Z,3.05
2023-05-05T09:40:03.928Z,2.95
2023-05-05T09:42:06.507Z,3.15
2023-05-05T09:44:09.906Z,3.40
2023-05-05T09:46:12.828Z,2.55
2023-05-05T09:48:47.794Z,3.25
2023-05-05T09:50:50.617Z,2.40
2023-05-05T09:53:03.879Z,2.90
2023-05-05T09:55:08.529Z,3.53
2023-05-05T09:57:27.753Z,4.00
2023-05-05T09:59:30.228Z,3.20
2023-05-05T10:01:32.704Z,2.67
2023-05-05T10:03:52.060Z,3.00
2023-05-05T10:05:56.777Z,3.15
2023-05-05T10:08:13.930Z,2.80
2023-05-05T10:10:18.795Z,3.13
2023-05-05T10:12:21.578Z,3.75
2023-05-05T10:14:26.228Z,3.95
2023-05-05T10:16:33.254Z,2.58
2023-05-05T10:18:36.063Z,2.80
2023-05-05T10:20:39.211Z,2.42
2023-05-05T10:22:52.694Z,3.30
2023-05-05T10:25:09.759Z,3.15
2023-05-05T10:27:20.410Z,2.90
2023-05-05T10:29:47.282Z,2.90
2023-05-05T10:32:18.817Z,2.67
2023-05-05T10:34:38.915Z,3.50
2023-05-05T10:36:42.081Z,2.78
2023-05-05T10:38:46.830Z,3.05
2023-05-05T10:40:50.787Z,2.85
2023-05-05T10:42:54.730Z,2.90
2023-05-05T10:44:57.207Z,3.15
2023-05-05T10:47:01.232Z,2.97
2023-05-05T10:49:16.582Z,2.70
2023-05-05T10:51:48.266Z,2.60
2023-05-05T10:54:06.664Z,2.67
2023-05-05T10:56:18.038Z,2.60
2023-05-05T10:58:43.720Z,2.47
2023-05-05T11:00:54.158Z,2.58
2023-05-05T11:03:18.742Z,3.17
2023-05-05T11:05:23.880Z,2.80
2023-05-05T11:07:28.093Z,2.75
2023-05-05T11:09:30.909Z,3.17
2023-05-05T11:12:10.213Z,2.70
2023-05-05T11:14:25.353Z,3.30
2023-05-05T11:16:50.934Z,3.25
2023-05-05T11:18:53.465Z,3.15
2023-05-05T11:20:58.837Z,3.08
2023-05-05T11:23:04.802Z,2.70
2023-05-05T11:25:44.836Z,2.63
2023-05-05T11:28:08.800Z,2.70
2023-05-05T11:32:18.396Z,2.63
2023-05-05T11:34:28.574Z,2.42
2023-05-05T11:36:41.715Z,2.72
2023-05-05T11:38:49.841Z,2.42
2023-05-05T11:41:02.852Z,2.00
2023-05-05T11:43:07.777Z,2.20
2023-05-05T11:45:22.092Z,2.70
2023-05-05T11:47:27.455Z,2.80
2023-05-05T11:49:34.197Z,2.75
2023-05-05T11:51:38.824Z,2.67
2023-05-05T11:53:46.476Z,2.60
2023-05-05T11:55:49.052Z,2.78
2023-05-05T11:57:52.232Z,2.47
2023-05-05T11:59:55.875Z,1.80
2023-05-05T12:01:59.560Z,1.63
2023-05-05T12:04:02.462Z,1.95
2023-05-05T12:06:07.255Z,2.58
2023-05-05T12:08:10.669Z,2.22
2023-05-05T12:10:13.623Z,2.50
2023-05-05T12:12:17.559Z,2.30
2023-05-05T12:14:21.239Z,2.47
2023-05-05T12:16:24.292Z,2.55
2023-05-05T12:18:26.851Z,2.67
2023-05-05T12:20:32.301Z,2.90
2023-05-05T12:22:34.969Z,2.10
2023-05-05T12:24:38.116Z,2.58
2023-05-05T12:26:40.881Z,2.50
2023-05-05T12:28:46.928Z,2.22
2023-05-05T12:31:00.246Z,2.20
2023-05-05T12:33:07.817Z,2.20
2023-05-05T12:35:10.949Z,2.50
2023-05-05T12:37:13.776Z,2.60
2023-05-05T12:39:16.107Z,2.70
2023-05-05T12:41:20.214Z,2.20
2023-05-05T12:43:27.203Z,2.25
2023-05-05T12:45:29.860Z,2.20
2023-05-05T12:47:33.477Z,2.38
2023-05-05T12:49:50.421Z,2.35
2023-05-05T12:51:57.208Z,2.28
2023-05-05T12:54:03.881Z,2.60
2023-05-05T12:56:06.301Z,2.17
2023-05-05T12:58:08.943Z,2.08
2023-05-05T13:00:18.255Z,2.33
2023-05-05T13:02:21.297Z,2.30
2023-05-05T13:04:26.419Z,2.90
2023-05-05T13:06:28.711Z,2.70
2023-05-05T13:08:44.542Z,3.03
2023-05-05T13:10:59.568Z,3.10
2023-05-05T13:13:02.853Z,3.10
2023-05-05T13:15:06.389Z,2.65
2023-05-05T13:17:09.446Z,2.55
2023-05-05T13:19:12.322Z,2.40
2023-05-05T13:21:15.109Z,2.70
2023-05-05T13:23:17.319Z,2.45
2023-05-05T13:25:19.617Z,2.45
2023-05-05T13:27:22.637Z,2.53
2023-05-05T13:29:29.544Z,2.80
2023-05-05T13:31:33.840Z,2.80
2023-05-05T13:33:36.773Z,2.38
2023-05-05T13:35:39.104Z,2.63
2023-05-05T13:37:42.736Z,2.70
2023-05-05T13:39:45.487Z,2.70
2023-05-05T13:41:48.209Z,2.80
2023-05-05T13:43:51.734Z,2.60
2023-05-05T13:45:55.956Z,2.60
2023-05-05T13:48:03.403Z,2.42
2023-05-05T13:50:06.757Z,2.92
2023-05-05T13:52:09.243Z,2.50
2023-05-05T13:54:11.946Z,3.03
2023-05-05T13:56:14.496Z,2.80
2023-05-05T13:58:17.964Z,2.78
2023-05-05T14:00:20.769Z,2.70
2023-05-05T14:02:23.581Z,2.72
2023-05-05T14:04:26.186Z,2.90
2023-05-05T14:06:28.552Z,2.65
2023-05-05T14:08:31.066Z,3.00
2023-05-05T14:10:33.485Z,2.90
2023-05-05T14:12:36.129Z,2.85
2023-05-05T14:14:38.387Z,2.72
2023-05-05T14:16:41.321Z,2.88
2023-05-05T14:18:43.835Z,2.50
2023-05-05T14:20:46.087Z,2.30
2023-05-05T14:22:49.373Z,2.40
2023-05-05T14:24:52.050Z,4.53
2023-05-05T14:26:54.745Z,2.38
2023-05-05T14:28:57.356Z,2.70
2023-05-05T14:30:59.926Z,2.65
2023-05-05T14:33:02.327Z,2.42
2023-05-05T14:35:05.393Z,2.80
2023-05-05T14:37:09.193Z,2.75
2023-05-05T14:39:12.041Z,3.45
2023-05-05T14:41:14.606Z,2.70
2023-05-05T14:43:16.805Z,2.25
2023-05-05T14:45:19.165Z,2.55
2023-05-05T14:47:21.958Z,2.25
2023-05-05T14:49:24.481Z,4.40
2023-05-05T14:51:26.812Z,3.63
2023-05-05T14:53:29.148Z,3.72
2023-05-05T14:55:31.556Z,8.13
2023-05-05T14:57:33.980Z,2.80
2023-05-05T14:59:36.576Z,2.60
2023-05-05T15:01:39.087Z,2.17
2023-05-05T15:03:41.623Z,3.20
2023-05-05T15:05:44.213Z,2.30
2023-05-05T15:07:46.898Z,2.40
2023-05-05T15:09:49.533Z,2.28
2023-05-05T15:11:52.080Z,2.30
2023-05-05T15:13:54.663Z,2.42
2023-05-05T15:15:57.415Z,2.40
2023-05-05T15:18:00.112Z,2.10
2023-05-05T15:20:02.593Z,1.77
2023-05-05T15:22:05.533Z,2.25
2023-05-05T15:24:07.868Z,2.30
2023-05-05T15:26:10.449Z,3.08
2023-05-05T15:28:12.920Z,2.35
2023-05-05T15:30:16.068Z,2.58
2023-05-05T15:32:18.880Z,2.05
2023-05-05T15:34:21.682Z,2.63
2023-05-05T15:36:25.119Z,2.72
2023-05-05T15:38:29.381Z,2.35
2023-05-05T15:40:31.903Z,2.03
2023-05-05T15:42:34.768Z,2.55
2023-05-05T15:44:37.442Z,2.42
2023-05-05T15:46:40.003Z,2.20
2023-05-05T15:48:42.253Z,1.85
2023-05-05T15:50:44.749Z,2.15
2023-05-05T15:52:49.825Z,2.45
2023-05-05T15:54:53.112Z,1.92
2023-05-05T15:56:55.647Z,2.22
2023-05-05T15:58:58.337Z,2.25
2023-05-05T16:01:01.241Z,2.38
2023-05-05T16:03:03.906Z,2.05
2023-05-05T16:05:07.178Z,2.08
2023-05-05T16:07:09.877Z,2.22
2023-05-05T16:09:12.418Z,2.03
2023-05-05T16:11:15.811Z,2.50
2023-05-05T16:13:18.796Z,2.55
2023-05-05T16:15:21.872Z,2.40
2023-05-05T16:17:24.201Z,2.35
2023-05-05T16:19:30.122Z,1.50
2023-05-05T16:21:33.872Z,2.50
2023-05-05T16:23:36.177Z,2.40
2023-05-05T16:25:38.876Z,2.03
2023-05-05T16:27:41.101Z,2.35
2023-05-05T16:29:43.782Z,2.30
2023-05-05T16:31:46.301Z,1.90
2023-05-05T16:33:49.101Z,2.20
2023-05-05T16:35:51.536Z,1.90
2023-05-05T16:37:54.223Z,2.20
2023-05-05T16:39:56.495Z,1.88
2023-05-05T16:41:58.979Z,1.63
2023-05-05T16:44:02.171Z,1.90
2023-05-05T16:46:04.908Z,2.00
2023-05-05T16:48:09.056Z,2.20
2023-05-05T16:50:11.904Z,1.85
2023-05-05T16:52:15.226Z,1.77
2023-05-05T16:54:17.678Z,2.50
2023-05-05T16:56:20.301Z,2.15
2023-05-05T16:58:23.490Z,1.63
2023-05-05T17:00:26.002Z,1.85
2023-05-05T17:02:28.704Z,2.10
2023-05-05T17:04:31.248Z,2.13
2023-05-05T17:06:33.665Z,2.05
2023-05-05T17:08:36.019Z,2.03
2023-05-05T17:10:38.301Z,1.90
2023-05-05T17:12:41.217Z,2.00
2023-05-05T17:14:45.258Z,1.70
2023-05-05T17:16:48.074Z,1.92
2023-05-05T17:18:50.311Z,1.60
2023-05-05T17:20:52.745Z,1.90
2023-05-05T17:22:56.357Z,2.00
2023-05-05T17:24:59.198Z,1.75
2023-05-05T17:27:02.283Z,2.05
2023-05-05T17:29:04.722Z,1.75
2023-05-05T17:31:07.081Z,1.75
2023-05-05T17:33:09.796Z,2.00
2023-05-05T17:35:12.539Z,3.20
2023-05-05T17:37:14.960Z,4.05
2023-05-05T17:39:17.901Z,2.53
2023-05-05T17:41:20.430Z,2.05
2023-05-05T17:43:22.954Z,2.10
2023-05-05T17:45:25.618Z,2.38
2023-05-05T17:47:28.341Z,2.42
2023-05-05T17:49:31.157Z,3.22
2023-05-05T17:51:33.521Z,2.65
2023-05-05T17:53:36.168Z,2.63
2023-05-05T17:55:38.508Z,2.55
2023-05-05T17:57:40.950Z,2.75
2023-05-05T17:59:43.421Z,2.72
2023-05-05T18:01:46.162Z,2.90
2023-05-05T18:03:49.280Z,2.85
2023-05-05T18:05:51.851Z,3.10
2023-05-05T18:07:54.380Z,2.53
2023-05-05T18:09:57.287Z,3.10
2023-05-05T18:11:59.721Z,2.95
2023-05-05T18:14:02.314Z,3.25
2023-05-05T18:16:05.678Z,3.80
2023-05-05T18:18:08.390Z,3.63
2023-05-05T18:20:12.001Z,2.97
2023-05-05T18:22:15.277Z,3.08
2023-05-05T18:24:20.378Z,3.30
2023-05-05T18:26:23.433Z,3.80
2023-05-05T18:28:26.259Z,3.38
2023-05-05T18:30:29.066Z,3.13
2023-05-05T18:32:31.936Z,3.13
2023-05-05T18:34:35.312Z,4.47
2023-05-05T18:36:37.790Z,3.28
2023-05-05T18:38:40.626Z,3.78
2023-05-05T18:40:43.559Z,3.50
2023-05-05T18:42:46.598Z,3.40
2023-05-05T18:44:49.483Z,3.55
2023-05-05T18:46:52.044Z,3.90
2023-05-05T18:48:54.954Z,3.20
2023-05-05T18:51:04.551Z,3.60
2023-05-05T18:53:07.883Z,3.10
2023-05-05T18:55:10.818Z,3.88
2023-05-05T18:57:14.400Z,3.45
2023-05-05T18:59:17.304Z,3.42
2023-05-05T19:01:20.748Z,3.55
2023-05-05T19:03:23.659Z,4.10
2023-05-05T19:05:28.272Z,4.38
2023-05-05T19:07:35.485Z,4.00
2023-05-05T19:09:54.276Z,4.10
2023-05-05T19:11:57.108Z,4.90
2023-05-05T19:13:59.806Z,4.82
2023-05-05T19:16:02.975Z,4.90
2023-05-05T19:18:07.536Z,5.20
2023-05-05T19:20:10.723Z,4.43
2023-05-05T19:22:13.616Z,4.10
2023-05-05T19:24:16.433Z,4.20
2023-05-05T19:26:19.031Z,4.57
2023-05-05T19:28:22.072Z,4.15
2023-05-05T19:30:24.847Z,4.18
2023-05-05T19:32:27.899Z,4.22
2023-05-05T19:34:30.382Z,4.20
2023-05-05T19:36:34.069Z,4.47
2023-05-05T19:38:37.617Z,4.60
2023-05-05T19:40:41.388Z,3.90
2023-05-05T19:42:44.422Z,4.00
2023-05-05T19:44:47.411Z,4.57
2023-05-05T19:46:50.360Z,4.20
2023-05-05T19:48:53.230Z,4.05
2023-05-05T19:50:55.916Z,4.75
2023-05-05T19:52:58.499Z,4.35
2023-05-05T19:55:01.373Z,4.18
2023-05-05T19:57:04.387Z,3.63
2023-05-05T19:59:07.047Z,4.47
2023-05-05T20:01:10.404Z,4.03
2023-05-05T20:03:13.563Z,4.65
2023-05-05T20:05:17.913Z,4.15
2023-05-05T20:07:21.254Z,4.00
2023-05-05T20:09:23.738Z,4.55
2023-05-05T20:11:26.450Z,4.32
2023-05-05T20:13:28.988Z,4.60
2023-05-05T20:15:32.741Z,3.92
2023-05-05T20:17:35.757Z,4.55
2023-05-05T20:19:38.611Z,3.60
2023-05-05T20:21:41.412Z,4.22
2023-05-05T20:23:45.814Z,4.40
2023-05-05T20:25:48.404Z,3.67
2023-05-05T20:27:51.133Z,4.40
2023-05-05T20:29:53.917Z,4.05
2023-05-05T20:31:57.199Z,4.18
2023-05-05T20:33:59.750Z,4.32
2023-05-05T20:36:02.222Z,3.88
2023-05-05T20:38:05.018Z,4.47
2023-05-05T20:40:08.613Z,3.85
2023-05-05T20:42:11.329Z,4.35
2023-05-05T20:44:14.029Z,3.58
2023-05-05T20:46:17.166Z,4.13
2023-05-05T20:48:20.169Z,3.90
2023-05-05T20:50:23.468Z,3.70
2023-05-05T20:52:25.998Z,3.63
2023-05-05T20:54:34.679Z,4.80
2023-05-05T20:56:37.227Z,4.40
2023-05-05T20:58:39.550Z,3.78
2023-05-05T21:00:42.704Z,4.32
2023-05-05T21:02:45.463Z,4.13
2023-05-05T21:04:48.473Z,3.03
2023-05-05T21:06:50.964Z,3.42
2023-05-05T21:08:53.472Z,4.05
2023-05-05T21:10:56.328Z,3.10
2023-05-05T21:12:59.028Z,3.75
2023-05-05T21:15:01.819Z,3.70
2023-05-05T21:17:04.243Z,4.53
2023-05-05T21:19:06.951Z,3.85
2023-05-05T21:21:09.452Z,4.38
2023-05-05T21:23:12.035Z,3.88
2023-05-05T21:25:20.263Z,5.10
2023-05-05T21:27:23.182Z,5.68
2023-05-05T21:29:26.293Z,4.90
2023-05-05T21:31:29.307Z,4.68
2023-05-05T21:33:31.782Z,4.03
2023-05-05T21:35:34.376Z,3.70
2023-05-05T21:37:39.844Z,4.07
2023-05-05T21:39:42.828Z,4.50
2023-05-05T21:41:45.564Z,4.60
2023-05-05T21:43:47.976Z,5.53
2023-05-05T21:46:02.541Z,4.10
2023-05-05T21:48:06.589Z,4.22
2023-05-05T21:50:10.499Z,4.18
2023-05-05T21:52:13.258Z,5.22
2023-05-05T21:54:16.084Z,3.80
2023-05-05T21:56:18.276Z,4.10
2023-05-05T21:58:21.071Z,4.53
2023-05-05T22:00:24.078Z,5.82
2023-05-05T22:02:26.590Z,4.88
2023-05-05T22:04:29.662Z,4.60
2023-05-05T22:06:50.500Z,4.55
2023-05-05T22:08:53.311Z,5.13
2023-05-05T22:10:56.104Z,3.55
2023-05-05T22:12:58.525Z,3.83
2023-05-05T22:15:01.360Z,4.63
2023-05-05T22:17:03.842Z,5.80
2023-05-05T22:19:07.315Z,6.65
2023-05-05T22:21:10.266Z,6.97
2023-05-05T22:23:14.344Z,6.28
2023-05-05T22:25:17.162Z,6.22
2023-05-05T22:27:19.488Z,6.78
2023-05-05T22:29:21.794Z,5.60
2023-05-05T22:31:24.568Z,6.05
2023-05-05T22:33:27.538Z,7.85
2023-05-05T22:35:30.020Z,6.57
2023-05-05T22:37:32.459Z,5.85
2023-05-05T22:39:34.949Z,6.78
2023-05-05T22:41:37.884Z,5.78
2023-05-05T22:43:40.391Z,5.25
2023-05-05T22:45:43.917Z,5.18
2023-05-05T22:47:46.573Z,5.28
2023-05-05T22:49:49.041Z,4.95
2023-05-05T22:51:52.227Z,5.10
2023-05-05T22:53:54.754Z,4.95
2023-05-05T22:55:58.693Z,5.47
2023-05-05T22:58:01.234Z,6.13
2023-05-05T23:00:05.297Z,6.28
2023-05-05T23:02:08.147Z,5.38
2023-05-05T23:04:11.002Z,7.78
2023-05-05T23:06:13.552Z,7.30
2023-05-05T23:08:15.897Z,7.63
2023-05-05T23:10:18.608Z,6.95
2023-05-05T23:12:21.154Z,6.63
2023-05-05T23:14:23.404Z,7.68
2023-05-05T23:16:26.165Z,7.60
2023-05-05T23:18:28.577Z,6.45
2023-05-05T23:20:31.064Z,6.88
2023-05-05T23:22:33.364Z,6.03
2023-05-05T23:24:35.839Z,6.40
2023-05-05T23:26:38.139Z,6.07
2023-05-05T23:28:40.551Z,6.38
2023-05-05T23:30:43.366Z,7.07
2023-05-05T23:32:46.258Z,7.70
2023-05-05T23:34:48.865Z,7.38
2023-05-05T23:36:51.346Z,8.77
2023-05-05T23:41:10.558Z,6.30
2023-05-05T23:43:13.249Z,6.97
2023-05-05T23:45:17.532Z,7.55
2023-05-05T23:47:21.360Z,7.93
2023-05-05T23:49:25.236Z,7.72
2023-05-05T23:51:27.621Z,7.45
2023-05-05T23:53:30.396Z,7.72
2023-05-05T23:55:33.025Z,7.70
2023-05-05T23:57:36.389Z,6.88
2023-05-05T23:59:39.637Z,7.43
